Flight Track Log - Related Links

Times and Time Zones

All times are in EDT time to prevent confusion due to time zone crossing. See the ASQ5649 flight status page for this flight to view local times or setup timezone preferences in your user account.

Time Position Orientation Groundspeed Altitude Reporting Facility
EDT Latitude Longitude Course Direction KTS MPH feet Rate Location/Type
Fri 09:12:23 AM 36.1167 -86.6833 141° Southeast 137 158 1,300  Level Nashville TRACON
Fri 09:13:17 AM 36.0833 -86.6500 141° Southeast 214 246 3,500 3,053 Climbing Nashville TRACON
Fri 09:14:17 AM 36.0500 -86.5833 122° Southeast 297 342 7,100 3,700 Climbing Nashville TRACON
Fri 09:15:17 AM 36.0833 -86.4833 68° East 319 367 10,900 3,600 Climbing Nashville TRACON
Fri 09:15:32 AM 36.0808 -86.4661 100° East 330 380 11,600 2,720 Climbing Memphis Center
Fri 09:16:32 AM 36.1172 -86.3642 66° East 346 398 14,300 1,950 Climbing Memphis Center
Fri 09:17:32 AM 36.1631 -86.2361 66° East 346 398 15,500 1,750 Climbing Memphis Center
Fri 09:18:32 AM 36.2089 -86.1103 66° East 379 436 17,800 2,200 Climbing Memphis Center
Fri 09:19:32 AM 36.2525 -85.9844 67° East 392 451 19,900 2,150 Climbing Memphis Center
Fri 09:20:32 AM 36.2997 -85.8531 66° East 403 464 22,100 2,045 Climbing Memphis Center
Fri 09:22:31 AM 36.4172 -85.5978 60° Northeast 436 502 26,000 1,856 Climbing Indianapolis Center
Fri 09:23:33 AM 36.4814 -85.4611 60° Northeast 453 521 27,700 1,452 Climbing Indianapolis Center
Fri 09:24:35 AM 36.5472 -85.3236 59° Northeast 460 529 29,000 629 Climbing Indianapolis Center
Fri 09:25:37 AM 36.6156 -85.1731 60° Northeast 496 571 29,000  Level Indianapolis Center
Fri 09:26:39 AM 36.6683 -85.0053 69° East 515 593 29,000 97 Level Indianapolis Center
Fri 09:27:41 AM 36.7167 -84.8433 70° East 498 573 29,200 677 Climbing Indianapolis Center
Fri 09:28:43 AM 36.7678 -84.6817 68° East 498 573 30,400 871 Climbing Indianapolis Center
Fri 09:29:45 AM 36.8261 -84.4836 70° East 503 579 31,000 293 Climbing Indianapolis Center
Fri 09:30:46 AM 36.8753 -84.3183 70° East 492 566 31,000  Level Indianapolis Center
Fri 09:31:48 AM 36.9236 -84.1633 69° East 479 551 31,000  Level Indianapolis Center
Fri 09:32:50 AM 36.9689 -84.0061 70° East 478 550 31,000  Level Indianapolis Center
Fri 09:33:52 AM 37.0164 -83.8478 69° East 485 558 31,000  Level Indianapolis Center
Fri 09:34:54 AM 37.0642 -83.6900 69° East 484 557 31,000  Level Indianapolis Center
Fri 09:35:56 AM 37.1092 -83.5317 70° East 480 552 31,000  Level Indianapolis Center
Fri 09:36:58 AM 37.1547 -83.3767 70° East 472 543 31,000  Level Indianapolis Center
Fri 09:38:00 AM 37.2061 -83.1983 70° East 464 534 31,000  Level Indianapolis Center
Fri 09:39:02 AM 37.2503 -83.0458 70° East 460 529 31,000  Level Indianapolis Center
Fri 09:40:04 AM 37.2942 -82.8947 70° East 456 525 31,000  Level Indianapolis Center
Fri 09:41:06 AM 37.3367 -82.7439 70° East 455 524 31,000  Level Indianapolis Center
Fri 09:42:08 AM 37.3792 -82.5936 70° East 453 521 31,000  Level Indianapolis Center
Fri 09:43:10 AM 37.4219 -82.4408 71° East 459 528 31,000  Level Indianapolis Center
Fri 09:44:12 AM 37.4644 -82.2886 71° East 461 531 31,000  Level Indianapolis Center
Fri 09:45:14 AM 37.5147 -82.1097 70° East 464 534 31,000  Level Indianapolis Center
Fri 09:46:16 AM 37.5569 -81.9544 71° East 467 537 31,000  Level Indianapolis Center
Fri 09:47:18 AM 37.5992 -81.7994 71° East 467 537 31,000  Level Indianapolis Center
Fri 09:48:20 AM 37.6417 -81.6442 71° East 467 537 31,000  Level Indianapolis Center
Fri 09:49:22 AM 37.6889 -81.4719 71° East 467 537 31,000  Level Indianapolis Center
Fri 09:50:10 AM 37.7175 -81.3572 72° East 452 520 31,000  Level Washington Center
Fri 09:51:11 AM 37.7603 -81.2028 71° East 458 527 31,000  Level Washington Center
Fri 09:52:09 AM 37.7844 -81.0444 79° East 458 527 31,000  Level Washington Center
Fri 09:53:09 AM 37.7958 -80.8822 85° East 458 527 31,000  Level Washington Center
Fri 09:54:09 AM 37.8044 -80.7331 86° East 458 527 31,000  Level Washington Center
Fri 09:55:10 AM 37.8153 -80.5758 85° East 458 527 31,000  Level Washington Center
Fri 09:56:11 AM 37.8261 -80.4111 85° East 458 527 31,000  Level Washington Center
Fri 09:57:09 AM 37.8372 -80.2331 85° East 458 527 31,000  Level Washington Center
Fri 09:58:09 AM 37.8478 -80.0706 85° East 458 527 31,000  Level Washington Center
Fri 09:59:10 AM 37.8578 -79.9081 85° East 463 533 31,000  Level Washington Center
Fri 10:00:10 AM 37.8678 -79.7456 85° East 463 533 31,000  Level Washington Center
Fri 10:01:11 AM 37.8775 -79.5803 86° East 458 527 31,000  Level Washington Center
Fri 10:02:09 AM 37.8869 -79.4175 86° East 463 533 31,000  Level Washington Center
Fri 10:03:09 AM 37.8958 -79.2706 86° East 463 533 31,000  Level Washington Center
Fri 10:04:10 AM 37.9047 -79.1078 86° East 458 527 31,000  Level Washington Center
Fri 10:05:11 AM 37.9242 -78.9456 81° East 458 527 31,000  Level Washington Center
Fri 10:06:09 AM 37.9431 -78.7883 81° East 458 527 31,000  Level Washington Center
Fri 10:07:11 AM 37.9642 -78.6103 81° East 463 533 31,000  Level Washington Center
Fri 10:08:11 AM 37.9828 -78.4528 81° East 463 533 31,000  Level Washington Center
Fri 10:09:09 AM 38.0011 -78.2928 82° East 463 533 31,000  Level Washington Center
Fri 10:10:09 AM 38.0150 -78.1325 84° East 458 527 31,000  Level Washington Center
Fri 10:11:10 AM 38.0222 -77.9878 86° East 454 522 31,000  Level Washington Center
Fri 10:12:10 AM 38.0336 -77.8300 85° East 454 522 31,000  Level Washington Center
Fri 10:13:11 AM 38.0406 -77.6694 87° East 454 522 31,000  Level Washington Center
Fri 10:14:09 AM 38.0517 -77.5114 85° East 454 522 31,000  Level Washington Center
Fri 10:15:09 AM 38.0603 -77.3456 86° East 460 529 31,000  Level Washington Center
Fri 10:16:10 AM 38.0733 -77.1664 85° East 460 529 31,000  Level Washington Center
Fri 10:17:10 AM 38.0794 -77.0031 87° East 465 535 31,000  Level Washington Center
Fri 10:18:10 AM 38.1000 -76.8478 80° East 460 529 31,000  Level Washington Center
Fri 10:19:08 AM 38.1783 -76.7328 49° Northeast 423 487 31,000  Level Washington Center
Fri 10:20:09 AM 38.2583 -76.6203 48° Northeast 422 486 31,000  Level Washington Center
Fri 10:21:11 AM 38.3322 -76.5233 46° Northeast 422 486 31,000  Level Washington Center
Fri 10:22:10 AM 38.4206 -76.4211 42° Northeast 422 486 31,000  Level Washington Center
Fri 10:23:10 AM 38.5131 -76.3056 44° Northeast 417 480 31,000  Level Washington Center
Fri 10:24:11 AM 38.5886 -76.2211 41° Northeast 428 493 31,000 -545 Level Washington Center
Fri 10:25:11 AM 38.6872 -76.1050 43° Northeast 428 493 29,900 -1,475 Descending Washington Center
Fri 10:26:09 AM 38.7750 -75.9936 45° Northeast 433 498 28,100 -1,475 Descending Washington Center
Fri 10:27:09 AM 38.8692 -75.8822 43° Northeast 440 506 27,000 -541 Descending Washington Center
Fri 10:28:11 AM 38.9611 -75.7758 42° Northeast 446 513 27,000  Level Washington Center
Fri 10:29:11 AM 39.0592 -75.6825 36° Northeast 441 507 27,000 -458 Level Washington Center
Fri 10:30:09 AM 39.1592 -75.5889 36° Northeast 441 507 26,100 -1,160 Descending Washington Center
Fri 10:31:10 AM 39.2572 -75.4950 37° Northeast 435 501 24,700 -1,131 Descending Washington Center
Fri 10:32:11 AM 39.3467 -75.4144 35° Northeast 419 482 23,800 -1,068 Descending Washington Center
Fri 10:33:08 AM 39.4319 -75.3417 33° Northeast 390 449 22,600 -1,210 Descending Washington Center
Fri 10:34:10 AM 39.5153 -75.2661 35° Northeast 371 427 21,400 -1,180 Descending Washington Center
Fri 10:35:10 AM 39.5983 -75.1875 36° Northeast 365 420 20,200 -1,339 Descending Washington Center
Fri 10:36:11 AM 39.6856 -75.1061 36° Northeast 358 412 18,700 -1,438 Descending Washington Center
Fri 10:37:11 AM 39.7644 -75.0381 34° Northeast 352 405 17,300 -1,576 Descending Washington Center
Fri 10:38:09 AM 39.8475 -74.9833 27° Northeast 341 392 15,600 -1,678 Descending Washington Center
Fri 10:39:09 AM 39.9325 -74.9422 20° North 321 369 14,000 -1,141 Descending Washington Center
Fri 10:40:31 AM 40.0000 -74.8167 55° Northeast 318 366 12,900 -1,020 Descending New York TRACON
Fri 10:41:36 AM 40.0500 -74.7167 57° Northeast 315 362 11,500 -1,700 Descending New York TRACON
Fri 10:42:31 AM 40.1167 -74.6333 44° Northeast 302 348 9,500 -1,774 Descending New York TRACON
Fri 10:43:31 AM 40.1667 -74.5500 52° Northeast 279 321 8,100 -750 Descending New York TRACON
Fri 10:44:31 AM 40.2167 -74.5333 14° North 208 239 8,000 -48 Descending New York TRACON
Fri 10:45:36 AM 40.2667 -74.5333 360° North 202 232 8,000 48 Level New York TRACON
Fri 10:46:36 AM 40.3000 -74.4667 57° Northeast 221 254 8,100 -250 Climbing New York TRACON
Fri 10:47:36 AM 40.3333 -74.4000 57° Northeast 209 241 7,500 -522 Descending New York TRACON
Fri 10:48:31 AM 40.3667 -74.3500 49° Northeast 206 237 7,100 -209 Descending New York TRACON
Fri 10:49:31 AM 40.4000 -74.2833 57° Northeast 226 260 7,100 -48 Level New York TRACON
Fri 10:50:36 AM 40.4500 -74.2167 45° Northeast 230 265 7,000 -200 Descending New York TRACON
Fri 10:51:31 AM 40.4833 -74.1667 49° Northeast 230 265 6,700 -939 Descending New York TRACON
Fri 10:52:31 AM 40.5333 -74.1000 45° Northeast 224 258 5,200 -1,450 Descending New York TRACON
Fri 10:53:31 AM 40.5667 -74.0500 49° Northeast 208 239 3,800 -1,100 Descending New York TRACON
Fri 10:54:31 AM 40.6167 -74.0167 27° Northeast 194 223 3,000 -650 Descending New York TRACON
Fri 10:55:31 AM 40.6667 -73.9667 37° Northeast 190 219 2,500 -190 Descending New York TRACON
Fri 10:56:37 AM 40.7167 -73.9333 27° Northeast 178 205 2,600 -150 Climbing New York TRACON
Fri 10:57:31 AM 40.7333 -73.8833 66° East 168 193 2,200 -444 Descending New York TRACON

Login

Don't have an account? Register now (free) for customized features, flight alerts, and more!